createdAt,value
2022-09-12T00:01:35.706Z,99223.22
2022-09-12T00:04:04.738Z,99223.38
2022-09-12T00:06:35.584Z,99227.16
2022-09-12T00:09:08.064Z,99223.66
2022-09-12T00:11:40.042Z,99215.28
2022-09-12T00:14:10.062Z,99214.31
2022-09-12T00:16:39.738Z,99206.53
2022-09-12T00:19:08.946Z,99216.41
2022-09-12T00:21:39.372Z,99207.34
2022-09-12T00:24:16.418Z,99211.84
2022-09-12T00:26:46.287Z,99192.59
2022-09-12T00:29:17.465Z,99198.31
2022-09-12T00:31:46.328Z,99196.25
2022-09-12T00:34:15.462Z,99181.50
2022-09-12T00:36:44.006Z,99181.06
2022-09-12T00:39:17.870Z,99172.47
2022-09-12T00:41:47.751Z,99142.56
2022-09-12T00:44:44.619Z,99148.16
2022-09-12T00:47:19.019Z,99126.63
2022-09-12T00:49:51.106Z,99126.25
2022-09-12T00:52:23.412Z,99102.69
2022-09-12T00:54:57.327Z,99100.41
2022-09-12T00:57:34.495Z,99112.31
2022-09-12T01:00:11.820Z,99113.94
2022-09-12T01:02:40.403Z,99097.75
2022-09-12T01:05:10.554Z,99090.63
2022-09-12T01:07:40.435Z,99078.94
2022-09-12T01:10:10.943Z,99111.91
2022-09-12T01:12:43.764Z,99115.97
2022-09-12T01:15:12.943Z,99106.81
2022-09-12T01:17:53.291Z,99106.41
2022-09-12T01:20:36.897Z,99110.66
2022-09-12T01:23:21.340Z,99120.91
2022-09-12T01:26:04.251Z,99108.22
2022-09-12T01:28:54.675Z,99110.25
2022-09-12T01:31:31.859Z,99105.72
2022-09-12T01:34:10.601Z,99107.00
2022-09-12T01:36:51.854Z,99083.25
2022-09-12T01:39:31.412Z,99058.25
2022-09-12T01:42:11.460Z,99039.88
2022-09-12T01:44:49.233Z,99025.09
2022-09-12T01:47:25.223Z,99034.97
2022-09-12T01:50:01.802Z,99043.53
2022-09-12T01:52:37.738Z,99079.97
2022-09-12T01:55:11.531Z,99084.25
2022-09-12T01:57:45.033Z,99073.78
2022-09-12T02:00:15.046Z,99089.72
2022-09-12T02:02:52.060Z,99089.53
2022-09-12T02:05:27.110Z,99083.22
2022-09-12T02:08:03.303Z,99088.75
2022-09-12T02:10:35.196Z,99089.75
2022-09-12T02:13:13.088Z,99091.00
2022-09-12T02:15:47.482Z,99088.97
2022-09-12T02:18:19.630Z,99098.56
2022-09-12T02:20:50.195Z,99117.56
2022-09-12T02:23:22.211Z,99137.56
2022-09-12T02:25:54.597Z,99147.97
2022-09-12T02:28:26.598Z,99133.44
2022-09-12T02:31:10.246Z,99134.31
2022-09-12T02:33:49.987Z,99142.34
2022-09-12T02:36:33.480Z,99139.91
2022-09-12T02:39:02.369Z,99137.25
2022-09-12T02:41:30.848Z,99115.78
2022-09-12T02:43:59.520Z,99081.63
2022-09-12T02:46:33.496Z,99086.72
2022-09-12T02:49:03.851Z,99056.66
2022-09-12T02:51:33.070Z,99055.22
2022-09-12T02:54:02.360Z,99045.81
2022-09-12T02:56:32.369Z,99029.22
2022-09-12T02:59:04.316Z,99017.34
2022-09-12T03:01:49.395Z,99034.75
2022-09-12T03:04:46.869Z,99056.66
2022-09-12T03:07:22.188Z,99079.13
2022-09-12T03:10:02.590Z,99082.44
2022-09-12T03:12:44.575Z,99095.91
2022-09-12T03:15:29.106Z,99106.94
2022-09-12T03:18:19.970Z,99127.81
2022-09-12T03:20:58.837Z,99129.06
2022-09-12T03:23:34.647Z,99141.59
2022-09-12T03:26:08.100Z,99121.31
2022-09-12T03:28:40.740Z,99101.66
2022-09-12T03:31:16.262Z,99091.63
2022-09-12T03:33:45.167Z,99075.28
2022-09-12T03:36:20.675Z,99063.81
2022-09-12T03:38:49.162Z,99070.78
2022-09-12T03:41:17.662Z,99040.88
2022-09-12T03:43:47.046Z,99019.00
2022-09-12T03:46:16.657Z,99033.34
2022-09-12T03:48:45.203Z,99049.88
2022-09-12T03:51:13.801Z,99060.34
2022-09-12T03:53:43.748Z,99042.31
2022-09-12T03:56:13.591Z,99057.47
2022-09-12T03:58:42.945Z,99052.97
2022-09-12T04:04:06.935Z,99041.75
2022-09-12T04:06:35.725Z,99024.50
2022-09-12T04:09:05.758Z,99032.94
2022-09-12T04:11:35.965Z,99016.94
2022-09-12T04:14:04.462Z,99031.66
2022-09-12T04:16:33.576Z,99036.13
2022-09-12T04:19:02.349Z,99052.94
2022-09-12T04:21:31.107Z,99055.41
2022-09-12T04:23:59.581Z,99066.66
2022-09-12T04:26:30.055Z,99066.06
2022-09-12T04:28:58.546Z,99074.06
2022-09-12T04:31:27.515Z,99092.47
2022-09-12T04:33:56.696Z,99089.81
2022-09-12T04:36:25.761Z,99100.44
2022-09-12T04:38:54.949Z,99118.47
2022-09-12T04:41:25.975Z,99120.53
2022-09-12T04:43:58.990Z,99100.84
2022-09-12T04:46:27.847Z,99100.81
2022-09-12T04:48:57.191Z,99113.50
2022-09-12T04:51:28.453Z,99104.28
2022-09-12T04:53:58.424Z,99121.47
2022-09-12T04:56:28.135Z,99125.28
2022-09-12T04:59:00.927Z,99115.97
2022-09-12T05:01:30.526Z,99092.50
2022-09-12T05:04:00.060Z,99076.09
2022-09-12T05:06:30.939Z,99081.34
2022-09-12T05:08:59.815Z,99078.06
2022-09-12T05:11:53.081Z,99047.16
2022-09-12T05:14:20.835Z,99053.69
2022-09-12T05:16:49.957Z,99055.66
2022-09-12T05:19:18.794Z,99069.50
2022-09-12T05:21:47.254Z,99071.97
2022-09-12T05:24:15.937Z,99070.31
2022-09-12T05:26:44.415Z,99075.38
2022-09-12T05:29:13.346Z,99075.63
2022-09-12T05:31:43.503Z,99087.38
2022-09-12T05:34:12.816Z,99105.34
2022-09-12T05:36:41.285Z,99118.25
2022-09-12T05:39:09.828Z,99168.06
2022-09-12T05:41:38.277Z,99184.16
2022-09-12T05:44:08.594Z,99184.84
2022-09-12T05:46:39.918Z,99142.75
2022-09-12T05:49:11.589Z,99149.28
2022-09-12T05:51:42.193Z,99170.94
2022-09-12T05:54:13.705Z,99153.13
2022-09-12T05:56:44.372Z,99124.94
2022-09-12T05:59:15.469Z,99146.59
2022-09-12T06:01:44.748Z,99160.22
2022-09-12T06:04:14.727Z,99155.69
2022-09-12T06:06:45.302Z,99149.38
2022-09-12T06:09:15.404Z,99141.41
2022-09-12T06:11:44.686Z,99141.03
2022-09-12T06:14:14.808Z,99135.75
2022-09-12T06:16:43.576Z,99124.72
2022-09-12T06:19:17.867Z,99105.28
2022-09-12T06:21:47.706Z,99104.25
2022-09-12T06:24:16.223Z,99106.47
2022-09-12T06:26:45.308Z,99099.94
2022-09-12T06:29:14.148Z,99080.69
2022-09-12T06:31:44.415Z,99072.72
2022-09-12T06:34:16.616Z,99037.94
2022-09-12T06:36:47.475Z,99045.31
2022-09-12T06:39:18.487Z,99037.31
2022-09-12T06:41:48.486Z,99035.91
2022-09-12T06:44:19.479Z,99043.72
2022-09-12T06:46:48.249Z,99051.50
2022-09-12T06:49:18.671Z,99044.34
2022-09-12T06:51:47.358Z,99052.78
2022-09-12T06:54:17.509Z,99057.69
2022-09-12T06:56:46.405Z,99055.84
2022-09-12T06:59:15.188Z,99055.19
2022-09-12T07:01:43.948Z,99037.59
2022-09-12T07:04:12.808Z,99055.28
2022-09-12T07:06:44.896Z,99051.06
2022-09-12T07:09:16.483Z,99060.28
2022-09-12T07:11:46.079Z,99066.44
2022-09-12T07:14:15.911Z,99059.03
2022-09-12T07:16:44.740Z,99058.25
2022-09-12T07:19:13.447Z,99064.00
2022-09-12T07:21:43.301Z,99044.53
2022-09-12T07:24:12.111Z,99078.97
2022-09-12T07:26:42.312Z,99071.41
2022-09-12T07:29:35.786Z,99055.06
2022-09-12T07:32:06.031Z,99053.97
2022-09-12T07:34:35.290Z,99049.88
2022-09-12T07:37:05.260Z,99053.22
2022-09-12T07:39:33.820Z,99073.44
2022-09-12T07:42:02.322Z,99074.25
2022-09-12T07:44:30.788Z,99063.38
2022-09-12T07:46:59.400Z,99060.44
2022-09-12T07:49:27.853Z,99056.53
2022-09-12T07:52:00.951Z,99040.69
2022-09-12T07:54:31.998Z,99060.03
2022-09-12T07:57:00.505Z,99075.63
2022-09-12T07:59:51.410Z,99070.78
2022-09-12T08:02:18.478Z,99081.84
2022-09-12T08:04:48.541Z,99041.41
2022-09-12T08:07:18.555Z,99047.97
2022-09-12T08:09:50.075Z,99066.81
2022-09-12T08:12:20.446Z,99010.31
2022-09-12T08:14:48.954Z,99024.41
2022-09-12T08:17:17.378Z,99038.16
2022-09-12T08:19:47.779Z,99036.94
2022-09-12T08:22:22.118Z,99051.53
2022-09-12T08:24:52.600Z,98993.53
2022-09-12T08:27:21.254Z,99007.13
2022-09-12T08:29:49.780Z,99025.53
2022-09-12T08:32:18.495Z,99049.28
2022-09-12T08:34:47.278Z,99087.16
2022-09-12T08:37:15.786Z,99109.88
2022-09-12T08:39:44.355Z,99107.03
2022-09-12T08:42:25.967Z,99113.63
2022-09-12T08:45:16.029Z,99115.22
2022-09-12T08:47:46.691Z,99115.19
2022-09-12T08:50:19.068Z,99103.66
2022-09-12T08:52:58.759Z,99087.00
2022-09-12T08:55:32.873Z,99091.66
2022-09-12T08:58:09.340Z,99127.19
2022-09-12T09:00:47.605Z,99121.75
2022-09-12T09:03:31.277Z,99104.81
2022-09-12T09:06:08.434Z,99070.81
2022-09-12T09:08:53.461Z,99072.09
2022-09-12T09:11:33.673Z,99044.47
2022-09-12T09:14:39.652Z,99067.16
2022-09-12T09:17:16.722Z,99056.69
2022-09-12T09:19:51.091Z,99018.81
2022-09-12T09:22:29.172Z,99040.97
2022-09-12T09:25:03.818Z,99004.41
2022-09-12T09:27:41.026Z,98938.06
2022-09-12T09:30:16.112Z,98966.44
2022-09-12T09:32:49.233Z,98951.94
2022-09-12T09:35:20.709Z,98945.66
2022-09-12T09:38:01.998Z,98939.03
2022-09-12T09:40:46.544Z,98939.09
2022-09-12T09:43:23.090Z,98960.34
2022-09-12T09:45:54.233Z,98966.69
2022-09-12T09:48:28.406Z,98963.78
2022-09-12T09:51:01.993Z,98954.03
2022-09-12T09:53:39.645Z,98952.97
2022-09-12T09:56:12.925Z,98932.94
2022-09-12T09:58:42.266Z,98971.84
2022-09-12T10:01:18.147Z,98896.31
2022-09-12T10:03:52.422Z,98969.03
2022-09-12T10:06:32.479Z,98970.78
2022-09-12T10:09:19.081Z,98967.06
2022-09-12T10:11:48.579Z,98987.09
2022-09-12T10:14:32.601Z,98974.91
2022-09-12T10:17:04.237Z,99014.78
2022-09-12T10:19:37.787Z,99024.34
2022-09-12T10:22:08.069Z,99026.59
2022-09-12T10:24:40.804Z,99032.97
2022-09-12T10:27:20.397Z,99034.97
2022-09-12T10:29:52.023Z,99033.56
2022-09-12T10:32:30.977Z,99043.56
2022-09-12T10:35:04.023Z,99046.78
2022-09-12T10:37:36.060Z,99031.03
2022-09-12T10:40:07.492Z,99041.28
2022-09-12T10:42:51.237Z,99036.72
2022-09-12T10:45:25.460Z,99045.75
2022-09-12T10:47:56.799Z,99050.25
2022-09-12T10:50:29.709Z,99043.09
2022-09-12T10:53:16.170Z,99026.84
2022-09-12T10:55:59.315Z,99017.19
2022-09-12T10:58:57.107Z,99029.78
2022-09-12T11:01:41.819Z,99007.84
2022-09-12T11:04:30.362Z,98999.19
2022-09-12T11:07:27.204Z,98973.81
2022-09-12T11:10:01.821Z,98999.41
2022-09-12T11:12:38.579Z,98936.75
2022-09-12T11:15:31.175Z,98996.91
2022-09-12T11:18:10.274Z,98993.31
2022-09-12T11:20:55.151Z,98994.69
2022-09-12T11:23:44.082Z,98990.16
2022-09-12T11:26:26.428Z,98972.31
2022-09-12T11:29:08.269Z,98971.34
2022-09-12T11:31:55.328Z,98975.19
2022-09-12T11:34:31.537Z,98967.97
2022-09-12T11:37:25.999Z,98951.78
2022-09-12T11:39:58.377Z,98951.91
2022-09-12T11:42:37.960Z,98956.66
2022-09-12T11:45:17.084Z,98936.88
2022-09-12T11:47:51.358Z,98938.41
2022-09-12T11:50:26.197Z,98944.91
2022-09-12T11:53:01.557Z,98946.09
2022-09-12T11:55:38.466Z,98941.59
2022-09-12T11:58:09.981Z,98928.66
2022-09-12T12:00:42.645Z,98925.53
2022-09-12T12:03:19.545Z,98926.25
2022-09-12T12:05:53.631Z,98906.78
2022-09-12T12:08:25.301Z,98896.88
2022-09-12T12:10:57.652Z,98893.66
2022-09-12T12:13:31.445Z,98885.50
2022-09-12T12:16:04.232Z,98892.66
2022-09-12T12:18:34.390Z,98884.00
2022-09-12T12:21:23.252Z,98885.19
2022-09-12T12:24:15.980Z,98874.81
2022-09-12T12:26:55.736Z,98868.66
2022-09-12T12:29:48.325Z,98867.63
2022-09-12T12:32:25.073Z,98862.75
2022-09-12T12:35:04.031Z,98860.63
2022-09-12T12:38:07.109Z,98844.53
2022-09-12T12:40:36.991Z,98857.88
2022-09-12T12:43:32.263Z,98851.03
2022-09-12T12:46:09.358Z,98861.94
2022-09-12T12:48:51.181Z,98850.88
2022-09-12T12:51:41.549Z,98847.44
2022-09-12T12:54:28.882Z,98853.81
2022-09-12T12:57:17.617Z,98845.94
2022-09-12T12:59:53.176Z,98836.34
2022-09-12T13:02:31.200Z,98833.66
2022-09-12T13:05:02.558Z,98829.41
2022-09-12T13:07:35.831Z,98816.81
2022-09-12T13:10:07.082Z,98814.25
2022-09-12T13:12:44.449Z,98802.72
2022-09-12T13:15:48.889Z,98809.66
2022-09-12T13:18:23.794Z,98805.84
2022-09-12T13:20:57.722Z,98798.44
2022-09-12T13:23:28.746Z,98816.31
2022-09-12T13:25:59.147Z,98834.44
2022-09-12T13:28:30.136Z,98835.84
2022-09-12T13:31:10.195Z,98829.19
2022-09-12T13:33:42.450Z,98835.53
2022-09-12T13:36:38.584Z,98847.84
2022-09-12T13:39:20.351Z,98857.44
2022-09-12T13:42:30.593Z,98843.63
2022-09-12T13:45:04.389Z,98840.97
2022-09-12T13:47:38.134Z,98835.00
2022-09-12T13:50:09.036Z,98842.25
2022-09-12T13:52:40.394Z,98836.09
2022-09-12T13:55:19.906Z,98829.19
2022-09-12T13:57:59.946Z,98824.66
2022-09-12T14:00:32.413Z,98817.88
2022-09-12T14:03:18.865Z,98816.00
2022-09-12T14:05:56.893Z,98819.19
2022-09-12T14:08:26.156Z,98802.81
2022-09-12T14:10:55.093Z,98799.75
2022-09-12T14:13:26.510Z,98801.97
2022-09-12T14:15:59.885Z,98796.88
2022-09-12T14:18:31.352Z,98797.06
2022-09-12T14:21:10.537Z,98790.19
2022-09-12T14:23:42.683Z,98796.25
2022-09-12T14:26:15.501Z,98774.13
2022-09-12T14:28:47.500Z,98777.38
2022-09-12T14:31:25.459Z,98761.91
2022-09-12T14:33:55.762Z,98759.31
2022-09-12T14:36:28.176Z,98752.63
2022-09-12T14:39:01.157Z,98741.34
2022-09-12T14:41:33.998Z,98752.53
2022-09-12T14:44:07.932Z,98737.66
2022-09-12T14:46:39.638Z,98749.22
2022-09-12T14:49:11.202Z,98743.50
2022-09-12T14:51:42.671Z,98732.63
2022-09-12T14:54:39.616Z,98724.66
2022-09-12T14:57:29.611Z,98722.88
2022-09-12T15:00:18.382Z,98716.72
2022-09-12T15:02:49.386Z,98725.41
2022-09-12T15:05:27.050Z,98725.88
2022-09-12T15:08:00.739Z,98725.25
2022-09-12T15:10:33.206Z,98708.88
2022-09-12T15:13:23.146Z,98706.63
2022-09-12T15:15:53.960Z,98693.28
2022-09-12T15:18:25.907Z,98704.84
2022-09-12T15:20:57.691Z,98687.97
2022-09-12T15:23:33.823Z,98682.03
2022-09-12T15:26:02.725Z,98672.53
2022-09-12T15:28:32.727Z,98680.53
2022-09-12T15:31:08.342Z,98676.34
2022-09-12T15:33:38.220Z,98660.06
2022-09-12T15:36:15.720Z,98664.75
2022-09-12T15:38:44.835Z,98658.56
2022-09-12T15:41:17.138Z,98643.97
2022-09-12T15:43:47.154Z,98647.38
2022-09-12T15:46:17.644Z,98646.31
2022-09-12T15:48:47.522Z,98637.31
2022-09-12T15:51:17.802Z,98635.41
2022-09-12T15:53:47.570Z,98640.47
2022-09-12T15:56:17.300Z,98641.13
2022-09-12T15:58:58.416Z,98636.41
2022-09-12T16:01:29.016Z,98637.69
2022-09-12T16:03:59.485Z,98631.94
2022-09-12T16:06:32.487Z,98622.19
2022-09-12T16:09:05.388Z,98635.06
2022-09-12T16:11:33.806Z,98632.38
2022-09-12T16:14:03.860Z,98648.47
2022-09-12T16:16:32.417Z,98651.06
2022-09-12T16:19:02.325Z,98668.44
2022-09-12T16:21:31.053Z,98678.13
2022-09-12T16:23:59.560Z,98675.53
2022-09-12T16:26:28.256Z,98657.38
2022-09-12T16:28:57.286Z,98682.16
2022-09-12T16:31:26.781Z,98692.16
2022-09-12T16:33:55.411Z,98692.50
2022-09-12T16:36:28.510Z,98701.41
2022-09-12T16:38:57.045Z,98699.78
2022-09-12T16:41:26.509Z,98699.53
2022-09-12T16:43:55.840Z,98694.72
2022-09-12T16:46:26.045Z,98697.41
2022-09-12T16:48:56.779Z,98691.25
2022-09-12T16:51:28.970Z,98682.63
2022-09-12T16:53:58.137Z,98685.44
2022-09-12T16:56:27.293Z,98684.16
2022-09-12T16:58:56.005Z,98673.94
2022-09-12T17:01:26.310Z,98681.47
2022-09-12T17:03:56.396Z,98689.31
2022-09-12T17:06:27.399Z,98691.88
2022-09-12T17:09:00.819Z,98682.75
2022-09-12T17:11:31.883Z,98670.53
2022-09-12T17:14:06.477Z,98667.78
2022-09-12T17:16:36.771Z,98673.09
2022-09-12T17:19:06.134Z,98674.47
2022-09-12T17:21:36.631Z,98667.34
2022-09-12T17:24:05.515Z,98677.22
2022-09-12T17:26:34.186Z,98689.47
2022-09-12T17:29:03.297Z,98697.53
2022-09-12T17:31:32.189Z,98687.22
2022-09-12T17:34:01.645Z,98674.50
2022-09-12T17:36:32.098Z,98664.97
2022-09-12T17:39:03.925Z,98647.19
2022-09-12T17:41:33.277Z,98653.53
2022-09-12T17:44:03.613Z,98654.47
2022-09-12T17:46:35.166Z,98651.41
2022-09-12T17:49:05.610Z,98655.13
2022-09-12T17:51:34.527Z,98653.91
2022-09-12T17:54:06.846Z,98648.00
2022-09-12T17:56:37.273Z,98653.81
2022-09-12T17:59:07.544Z,98646.84
2022-09-12T18:01:53.900Z,98641.75
2022-09-12T18:04:22.373Z,98636.06
2022-09-12T18:06:51.086Z,98631.44
2022-09-12T18:09:23.509Z,98636.34
2022-09-12T18:11:53.165Z,98630.19
2022-09-12T18:14:21.926Z,98627.50
2022-09-12T18:16:51.198Z,98623.50
2022-09-12T18:19:19.938Z,98644.38
2022-09-12T18:21:48.373Z,98651.34
2022-09-12T18:24:17.367Z,98664.03
2022-09-12T18:26:47.960Z,98667.22
2022-09-12T18:29:17.448Z,98662.50
2022-09-12T18:31:46.838Z,98658.84
2022-09-12T18:34:15.914Z,98669.63
2022-09-12T18:36:46.548Z,98657.22
2022-09-12T18:39:15.539Z,98679.25
2022-09-12T18:41:44.039Z,98673.44
2022-09-12T18:44:14.104Z,98667.16
2022-09-12T18:46:42.643Z,98666.44
2022-09-12T18:49:11.461Z,98659.31
2022-09-12T18:51:41.976Z,98670.13
2022-09-12T18:54:14.584Z,98667.66
2022-09-12T18:56:44.282Z,98669.22
2022-09-12T18:59:15.151Z,98665.53
2022-09-12T19:01:44.255Z,98670.84
2022-09-12T19:04:15.081Z,98666.25
2022-09-12T19:06:45.357Z,98670.41
2022-09-12T19:09:15.766Z,98669.09
2022-09-12T19:11:49.875Z,98665.97
2022-09-12T19:14:22.677Z,98649.94
2022-09-12T19:16:52.311Z,98651.94
2022-09-12T19:19:21.365Z,98647.06
2022-09-12T19:21:49.829Z,98644.66
2022-09-12T19:24:18.527Z,98651.34
2022-09-12T19:26:47.147Z,98670.16
2022-09-12T19:29:16.827Z,98649.63
2022-09-12T19:31:47.493Z,98675.28
2022-09-12T19:34:16.447Z,98676.22
2022-09-12T19:36:46.752Z,98664.59
2022-09-12T19:39:16.616Z,98663.16
2022-09-12T19:41:45.780Z,98676.66
2022-09-12T19:44:14.617Z,98696.78
2022-09-12T19:46:43.562Z,98703.81
2022-09-12T19:49:14.059Z,98701.00
2022-09-12T19:51:42.549Z,98703.47
2022-09-12T19:54:11.116Z,98692.00
2022-09-12T19:56:39.565Z,98687.97
2022-09-12T19:59:08.805Z,98703.94
2022-09-12T20:01:37.954Z,98703.38
2022-09-12T20:04:07.045Z,98709.69
2022-09-12T20:06:36.991Z,98709.28
2022-09-12T20:09:05.532Z,98704.19
2022-09-12T20:11:34.160Z,98703.53
2022-09-12T20:14:03.002Z,98705.78
2022-09-12T20:16:33.627Z,98701.84
2022-09-12T20:19:06.155Z,98716.13
2022-09-12T20:21:37.167Z,98693.66
2022-09-12T20:24:07.008Z,98703.88
2022-09-12T20:26:35.555Z,98700.97
2022-09-12T20:29:05.477Z,98709.31
2022-09-12T20:31:34.603Z,98715.25
2022-09-12T20:34:03.327Z,98717.53
2022-09-12T20:36:32.052Z,98719.84
2022-09-12T20:39:03.400Z,98719.03
2022-09-12T20:41:33.856Z,98722.53
2022-09-12T20:44:02.430Z,98711.09
2022-09-12T20:46:30.986Z,98717.25
2022-09-12T20:48:59.743Z,98711.34
2022-09-12T20:51:29.818Z,98721.97
2022-09-12T20:53:59.125Z,98716.03
2022-09-12T20:56:29.701Z,98702.31
2022-09-12T20:58:59.065Z,98706.97
2022-09-12T21:01:29.224Z,98695.28
2022-09-12T21:03:57.910Z,98688.72
2022-09-12T21:06:26.412Z,98684.63
2022-09-12T21:08:58.504Z,98680.94
2022-09-12T21:11:28.774Z,98692.44
2022-09-12T21:13:58.009Z,98704.09
2022-09-12T21:16:26.711Z,98695.91
2022-09-12T21:18:57.033Z,98686.97
2022-09-12T21:21:26.122Z,98679.41
2022-09-12T21:23:55.514Z,98683.03
2022-09-12T21:26:24.002Z,98687.56
2022-09-12T21:28:53.846Z,98691.00
2022-09-12T21:31:22.482Z,98677.72
2022-09-12T21:33:52.153Z,98672.41
2022-09-12T21:36:20.641Z,98676.31
2022-09-12T21:38:49.305Z,98668.75
2022-09-12T21:41:19.866Z,98675.47
2022-09-12T21:43:48.698Z,98664.47
2022-09-12T21:46:19.218Z,98673.25
2022-09-12T21:48:47.682Z,98672.41
2022-09-12T21:51:16.156Z,98664.28
2022-09-12T21:53:44.754Z,98671.66
2022-09-12T21:56:13.435Z,98674.13
2022-09-12T21:58:41.924Z,98681.28
2022-09-12T22:01:12.960Z,98668.00
2022-09-12T22:03:44.964Z,98675.19
2022-09-12T22:06:14.347Z,98691.16
2022-09-12T22:08:43.166Z,98685.25
2022-09-12T22:11:13.066Z,98684.00
2022-09-12T22:13:44.091Z,98690.16
2022-09-12T22:16:13.087Z,98696.28
2022-09-12T22:18:43.022Z,98699.34
2022-09-12T22:21:16.390Z,98691.38
2022-09-12T22:24:02.235Z,98690.31
2022-09-12T22:26:34.567Z,98680.13
2022-09-12T22:29:03.298Z,98673.38
2022-09-12T22:31:32.121Z,98680.53
2022-09-12T22:34:02.059Z,98675.63
2022-09-12T22:36:31.401Z,98670.97
2022-09-12T22:39:01.055Z,98661.94
2022-09-12T22:41:29.615Z,98664.00
2022-09-12T22:43:58.669Z,98670.13
2022-09-12T22:46:27.696Z,98668.66
2022-09-12T22:48:56.894Z,98673.97
2022-09-12T22:51:27.184Z,98672.78
2022-09-12T22:53:56.604Z,98667.06
2022-09-12T22:56:25.156Z,98662.97
2022-09-12T22:58:54.218Z,98654.81
2022-09-12T23:01:23.982Z,98643.34
2022-09-12T23:03:52.627Z,98661.75
2022-09-12T23:06:21.390Z,98655.44
2022-09-12T23:08:51.446Z,98635.63
2022-09-12T23:11:21.605Z,98639.69
2022-09-12T23:13:52.290Z,98633.38
2022-09-12T23:16:23.330Z,98636.22
2022-09-12T23:18:52.311Z,98637.03
2022-09-12T23:21:22.657Z,98633.78
2022-09-12T23:23:52.559Z,98625.56
2022-09-12T23:26:23.111Z,98635.81
2022-09-12T23:28:53.686Z,98631.31
2022-09-12T23:31:23.332Z,98639.09
2022-09-12T23:33:54.203Z,98634.78
2022-09-12T23:36:24.333Z,98610.50
2022-09-12T23:38:55.782Z,98590.88
2022-09-12T23:41:24.634Z,98576.19
2022-09-12T23:43:53.436Z,98552.28
2022-09-12T23:46:23.129Z,98552.03
2022-09-12T23:48:53.344Z,98563.16
2022-09-12T23:51:22.872Z,98570.91
2022-09-12T23:53:51.546Z,98551.69
2022-09-12T23:56:22.276Z,98575.59
2022-09-12T23:58:50.810Z,98555.19
